Flight Track Log - Related Links

Times and Time Zones

All times are in EDT time to prevent confusion due to time zone crossing. See the SWA430 flight status page for this flight to view local times or setup timezone preferences in your user account.

Time Position Orientation Groundspeed Altitude Reporting Facility
EDT Latitude Longitude Course Direction KTS MPH feet Rate Location/Type
Sun 06:57:20 PM 36.0758 -115.1764 276° West 181 208 3,400  Level Los Angeles Center
Sun 06:58:39 PM 36.0836 -115.2722 276° West 244 281 5,900 2,103 Climbing Los Angeles Center
Sun 06:59:17 PM 36.1183 -115.2925 335° Northwest 251 289 7,500 2,945 Climbing Los Angeles Center
Sun 06:59:34 PM 36.1481 -115.2908 North 265 305 8,600 2,323 Climbing Los Angeles Center
Sun 07:00:19 PM 36.1733 -115.2483 54° Northeast 262 302 9,900 1,234 Climbing Los Angeles Center
Sun 07:01:21 PM 36.1967 -115.1186 77° East 328 377 10,800 1,597 Climbing Los Angeles Center
Sun 07:02:23 PM 36.1983 -114.9900 89° East 368 423 13,200 2,226 Climbing Los Angeles Center
Sun 07:03:25 PM 36.2003 -114.8547 89° East 386 444 15,400 2,177 Climbing Los Angeles Center
Sun 07:04:27 PM 36.1997 -114.7111 90° East 408 470 17,700 2,323 Climbing Los Angeles Center
Sun 07:05:29 PM 36.1975 -114.5636 91° East 423 487 20,200 2,081 Climbing Los Angeles Center
Sun 07:06:31 PM 36.1958 -114.4108 91° East 438 504 22,000 1,887 Climbing Los Angeles Center
Sun 07:07:33 PM 36.1947 -114.2206 90° East 456 525 24,100 1,742 Climbing Los Angeles Center
Sun 07:08:35 PM 36.2156 -114.0600 81° East 471 542 25,600 1,296 Climbing Los Angeles Center
Sun 07:09:38 PM 36.2347 -113.8964 82° East 477 549 26,800 1,200 Climbing Los Angeles Center
Sun 07:10:40 PM 36.2547 -113.7275 82° East 489 563 28,100 1,152 Climbing Los Angeles Center
Sun 07:11:43 PM 36.2742 -113.5561 82° East 498 573 29,200 1,065 Climbing Los Angeles Center
Sun 07:12:44 PM 36.2942 -113.3808 82° East 510 587 30,300 1,220 Climbing Los Angeles Center
Sun 07:13:46 PM 36.3267 -113.1831 78° East 517 595 31,700 1,258 Climbing Los Angeles Center
Sun 07:14:48 PM 36.3869 -113.0261 64° Northeast 508 585 32,900 1,065 Climbing Los Angeles Center
Sun 07:15:50 PM 36.4447 -112.8669 66° East 508 585 33,900 1,016 Climbing Los Angeles Center
Sun 07:16:52 PM 36.5025 -112.7100 65° Northeast 504 580 35,000 426 Climbing Los Angeles Center
Sun 07:18:25 PM 36.5953 -112.4569 65° Northeast 507 583 35,000  Level Denver Center
Sun 07:18:56 PM 36.6303 -112.3631 65° Northeast 503 579 35,000  Level Los Angeles Center
Sun 07:19:59 PM 36.6872 -112.2047 66° East 504 580 35,000  Level Los Angeles Center
Sun 07:20:28 PM 36.7211 -112.1092 66° East 505 581 35,000  Level Denver Center
Sun 07:22:03 PM 36.8008 -111.8878 66° East 501 577 35,000  Level Los Angeles Center
Sun 07:22:31 PM 36.8353 -111.7914 66° East 503 579 35,000  Level Denver Center
Sun 07:24:07 PM 36.9264 -111.5375 66° East 504 580 35,000  Level Los Angeles Center
Sun 07:24:34 PM 36.9497 -111.4731 66° East 504 580 35,000  Level Denver Center
Sun 07:25:36 PM 37.0053 -111.3142 66° East 503 579 35,000  Level Denver Center
Sun 07:26:38 PM 37.0594 -111.1547 67° East 501 577 35,000  Level Denver Center
Sun 07:27:39 PM 37.1261 -110.9622 66° East 502 578 35,000  Level Denver Center
Sun 07:28:41 PM 37.1822 -110.8022 66° East 504 580 35,000  Level Denver Center
Sun 07:29:42 PM 37.2375 -110.6414 67° East 503 579 35,000  Level Denver Center
Sun 07:30:44 PM 37.2931 -110.4789 67° East 507 583 35,000  Level Denver Center
Sun 07:31:45 PM 37.3478 -110.3164 67° East 507 583 35,000  Level Denver Center
Sun 07:32:47 PM 37.4069 -110.1450 66° East 512 589 35,000  Level Denver Center
Sun 07:33:48 PM 37.4686 -109.9597 67° East 513 590 35,000  Level Denver Center
Sun 07:34:50 PM 37.5217 -109.8042 67° East 509 586 35,000  Level Denver Center
Sun 07:35:51 PM 37.5750 -109.6453 67° East 512 589 35,000  Level Denver Center
Sun 07:36:53 PM 37.6361 -109.4597 67° East 513 590 35,000  Level Denver Center
Sun 07:37:54 PM 37.6894 -109.2989 67° East 516 594 35,000  Level Denver Center
Sun 07:38:56 PM 37.7508 -109.1106 68° East 519 597 35,000  Level Denver Center
Sun 07:39:57 PM 37.8031 -108.9481 68° East 520 598 35,000  Level Denver Center
Sun 07:40:59 PM 37.8578 -108.7861 67° East 523 602 35,000  Level Denver Center
Sun 07:42:00 PM 37.9239 -108.6008 66° East 518 596 35,000  Level Denver Center
Sun 07:43:02 PM 37.9800 -108.4417 66° East 517 595 35,000  Level Denver Center
Sun 07:44:03 PM 38.0353 -108.2803 66° East 518 596 35,000  Level Denver Center
Sun 07:45:05 PM 38.1011 -108.0861 67° East 524 603 35,000  Level Denver Center
Sun 07:46:06 PM 38.1544 -107.9267 67° East 518 596 35,000  Level Denver Center
Sun 07:47:20 PM 38.2272 -107.7136 66° East 516 594 35,000  Level Denver Center
Sun 07:48:22 PM 38.2814 -107.5550 66° East 513 590 35,000  Level Denver Center
Sun 07:49:23 PM 38.3456 -107.3639 67° East 523 602 35,000  Level Denver Center
Sun 07:50:25 PM 38.4044 -107.1842 67° East 533 613 35,000  Level Denver Center
Sun 07:51:27 PM 38.4594 -107.0111 68° East 531 611 35,000  Level Denver Center
Sun 07:52:28 PM 38.4942 -106.8256 76° East 541 623 35,000  Level Denver Center
Sun 07:53:30 PM 38.5314 -106.6422 75° East 537 618 35,000  Level Denver Center
Sun 07:54:32 PM 38.5658 -106.4592 76° East 534 615 35,000  Level Denver Center
Sun 07:55:33 PM 38.6019 -106.2742 76° East 535 616 35,000  Level Denver Center
Sun 07:56:35 PM 38.6411 -106.0714 76° East 533 613 35,000  Level Denver Center
Sun 07:57:37 PM 38.6761 -105.8856 76° East 534 615 35,000  Level Denver Center
Sun 07:58:38 PM 38.7114 -105.7003 76° East 530 610 35,000  Level Denver Center
Sun 07:59:40 PM 38.7464 -105.5139 76° East 534 615 35,000  Level Denver Center
Sun 08:00:42 PM 38.7864 -105.2953 77° East 537 618 35,000  Level Denver Center
Sun 08:01:44 PM 38.8208 -105.1083 77° East 538 619 35,000  Level Denver Center
Sun 08:02:46 PM 38.8542 -104.9214 77° East 535 616 35,000  Level Denver Center
Sun 08:03:47 PM 38.8886 -104.7333 77° East 538 619 35,000  Level Denver Center
Sun 08:04:49 PM 38.9222 -104.5478 77° East 533 613 35,000  Level Denver Center
Sun 08:05:51 PM 38.9536 -104.3631 78° East 529 609 35,000  Level Denver Center
Sun 08:06:53 PM 38.9867 -104.1772 77° East 533 613 35,000  Level Denver Center
Sun 08:07:55 PM 39.0236 -103.9575 78° East 536 617 35,000  Level Denver Center
Sun 08:08:57 PM 39.0561 -103.7678 78° East 540 621 35,000  Level Denver Center
Sun 08:09:58 PM 39.0886 -103.5769 78° East 542 624 35,000  Level Denver Center
Sun 08:11:00 PM 39.1214 -103.3856 77° East 544 626 35,000  Level Denver Center
Sun 08:12:02 PM 39.1528 -103.1922 78° East 548 631 35,000  Level Denver Center
Sun 08:13:04 PM 39.1847 -102.9967 78° East 552 635 35,000  Level Denver Center
Sun 08:14:06 PM 39.2150 -102.8031 79° East 549 632 35,000  Level Denver Center
Sun 08:15:08 PM 39.2497 -102.5828 78° East 553 636 35,000  Level Denver Center
Sun 08:16:09 PM 39.2794 -102.3964 78° East 553 636 35,000  Level Denver Center
Sun 08:17:11 PM 39.3133 -102.1764 79° East 558 642 35,000  Level Denver Center
Sun 08:18:13 PM 39.3433 -101.9864 78° East 557 641 35,000  Level Denver Center
Sun 08:19:15 PM 39.3717 -101.7986 79° East 557 641 35,000  Level Denver Center
Sun 08:20:17 PM 39.3789 -101.5764 88° East 559 643 35,000  Level Denver Center
Sun 08:21:18 PM 39.3622 -101.3819 96° East 568 654 35,000  Level Denver Center
Sun 08:22:20 PM 39.3431 -101.1581 96° East 564 649 35,000  Level Denver Center
Sun 08:23:22 PM 39.3261 -100.9644 96° East 567 652 35,000  Level Denver Center
Sun 08:24:24 PM 39.3064 -100.7403 96° East 565 650 35,000  Level Denver Center
Sun 08:25:26 PM 39.2883 -100.5500 97° East 562 647 35,000  Level Denver Center
Sun 08:26:27 PM 39.2683 -100.3267 97° East 562 647 35,000  Level Denver Center
Sun 08:27:29 PM 39.2608 -100.1331 93° East 569 655 35,000  Level Denver Center
Sun 08:28:31 PM 39.2683 -99.9117 87° East 557 641 35,000  Level Denver Center
Sun 08:29:33 PM 39.2725 -99.7183 88° East 562 647 35,000  Level Denver Center
Sun 08:30:35 PM 39.2772 -99.4950 88° East 561 646 35,000  Level Denver Center
Sun 08:31:37 PM 39.2811 -99.3011 88° East 565 650 35,000  Level Denver Center
Sun 08:32:38 PM 39.2844 -99.1094 89° East 561 646 35,000  Level Denver Center
Sun 08:33:40 PM 39.2894 -98.8936 88° East 561 646 35,000  Level Denver Center
Sun 08:34:42 PM 39.2931 -98.6931 89° East 560 644 35,000  Level Denver Center
Sun 08:35:44 PM 39.2958 -98.4928 89° East 561 646 35,000  Level Denver Center
Sun 08:36:46 PM 39.2975 -98.2933 89° East 558 642 35,000  Level Denver Center
Sun 08:37:59 PM 39.3000 -98.0181 89° East 549 632 35,000  Level Kansas City Center
Sun 08:39:02 PM 39.3033 -97.8147 89° East 555 639 35,000  Level Kansas City Center
Sun 08:40:03 PM 39.3047 -97.6153 89° East 558 642 35,000  Level Kansas City Center
Sun 08:41:04 PM 39.3047 -97.4158 90° East 550 633 35,000  Level Kansas City Center
Sun 08:42:05 PM 39.3058 -97.2242 90° East 555 639 35,000  Level Kansas City Center
Sun 08:43:10 PM 39.3053 -97.0008 90° East 557 641 35,000  Level Kansas City Center
Sun 08:44:10 PM 39.3064 -96.8078 90° East 560 644 35,000  Level Kansas City Center
Sun 08:45:11 PM 39.3050 -96.5842 90° East 559 643 35,000  Level Kansas City Center
Sun 08:46:14 PM 39.3050 -96.3797 90° East 559 643 35,000  Level Kansas City Center
Sun 08:47:16 PM 39.3042 -96.1803 90° East 557 641 35,000  Level Kansas City Center
Sun 08:48:16 PM 39.3008 -95.9786 91° East 554 638 35,000  Level Kansas City Center
Sun 08:49:20 PM 39.2997 -95.7883 90° East 553 636 35,000  Level Kansas City Center
Sun 08:50:21 PM 39.2972 -95.5672 91° East 549 632 35,000  Level Kansas City Center
Sun 08:51:22 PM 39.2953 -95.3678 91° East 549 632 35,000  Level Kansas City Center
Sun 08:52:23 PM 39.2919 -95.1586 91° East 544 626 35,000  Level Kansas City Center
Sun 08:53:24 PM 39.2908 -94.9631 90° East 541 623 35,000  Level Kansas City Center
Sun 08:54:28 PM 39.3142 -94.7817 81° East 534 615 35,000  Level Kansas City Center
Sun 08:55:29 PM 39.3411 -94.6003 79° East 544 626 35,000  Level Kansas City Center
Sun 08:56:30 PM 39.3694 -94.3900 80° East 532 612 35,000  Level Kansas City Center
Sun 08:57:32 PM 39.3933 -94.2106 80° East 530 610 35,000  Level Kansas City Center
Sun 08:58:33 PM 39.4206 -94.0022 80° East 526 605 35,000  Level Kansas City Center
Sun 08:59:36 PM 39.4444 -93.8244 80° East 523 602 35,000  Level Kansas City Center
Sun 09:00:36 PM 39.4703 -93.6219 81° East 530 610 35,000  Level Kansas City Center
Sun 09:01:40 PM 39.4933 -93.4364 81° East 528 608 35,000  Level Kansas City Center
Sun 09:02:39 PM 39.5172 -93.2556 80° East 522 601 35,000  Level Kansas City Center
Sun 09:03:43 PM 39.5414 -93.0728 80° East 521 600 35,000  Level Kansas City Center
Sun 09:04:42 PM 39.5619 -92.8875 82° East 525 604 35,000  Level Kansas City Center
Sun 09:05:46 PM 39.5881 -92.6708 81° East 518 596 35,000  Level Kansas City Center
Sun 09:06:48 PM 39.6086 -92.4953 81° East 512 589 35,000  Level Kansas City Center
Sun 09:07:49 PM 39.6289 -92.3144 82° East 505 581 35,000  Level Kansas City Center
Sun 09:08:51 PM 39.6489 -92.1433 81° East 502 578 35,000  Level Kansas City Center
Sun 09:09:52 PM 39.6689 -91.9669 82° East 501 577 35,000  Level Kansas City Center
Sun 09:10:52 PM 39.6933 -91.7536 81° East 504 580 35,000  Level Kansas City Center
Sun 09:11:56 PM 39.7128 -91.5786 82° East 501 577 35,000  Level Kansas City Center
Sun 09:12:56 PM 39.7308 -91.4033 82° East 497 572 35,000  Level Kansas City Center
Sun 09:13:57 PM 39.7489 -91.2386 82° East 494 568 35,000  Level Kansas City Center
Sun 09:15:01 PM 39.7683 -91.0544 82° East 494 568 35,000  Level Kansas City Center
Sun 09:16:01 PM 39.7875 -90.8747 82° East 489 563 35,000  Level Kansas City Center
Sun 09:17:04 PM 39.8047 -90.7017 83° East 486 559 35,000  Level Kansas City Center
Sun 09:18:05 PM 39.8256 -90.4947 82° East 483 556 35,000  Level Kansas City Center
Sun 09:19:07 PM 39.8422 -90.3225 83° East 483 556 35,000  Level Kansas City Center
Sun 09:20:07 PM 39.8597 -90.1500 82° East 483 556 35,000  Level Kansas City Center
Sun 09:21:08 PM 39.8761 -89.9769 83° East 483 556 35,000  Level Kansas City Center
Sun 09:21:47 PM 39.8853 -89.8772 83° East 480 552 35,000  Level Chicago Center
Sun 09:22:12 PM 39.8928 -89.8047 82° East 483 556 35,000  Level Kansas City Center
Sun 09:23:13 PM 39.9075 -89.6331 84° East 482 555 35,000  Level Kansas City Center
Sun 09:23:51 PM 39.9197 -89.4956 83° East 486 559 35,000  Level Chicago Center
Sun 09:24:53 PM 39.9367 -89.3197 83° East 491 565 35,000  Level Chicago Center
Sun 09:25:17 PM 39.9433 -89.2475 83° East 489 563 35,000  Level Kansas City Center
Sun 09:26:18 PM 39.9597 -89.0706 83° East 493 567 35,000  Level Kansas City Center
Sun 09:27:20 PM 39.9744 -88.8942 84° East 493 567 35,000  Level Kansas City Center
Sun 09:28:20 PM 39.9886 -88.7175 84° East 491 565 35,000  Level Kansas City Center
Sun 09:29:21 PM 40.0047 -88.5428 83° East 490 564 35,000  Level Kansas City Center
Sun 09:30:25 PM 40.0208 -88.3692 83° East 486 559 35,000  Level Kansas City Center
Sun 09:31:04 PM 40.0294 -88.2347 85° East 480 552 35,000  Level Chicago Center
Sun 09:32:05 PM 40.0425 -88.0639 84° East 476 548 35,000  Level Chicago Center
Sun 09:33:07 PM 40.0564 -87.8947 84° East 472 543 35,000  Level Chicago Center
Sun 09:33:55 PM 40.0650 -87.7683 85° East 471 542 35,000  Level Indianapolis Center
Sun 09:34:57 PM 40.0769 -87.5953 85° East 472 543 35,000  Level Indianapolis Center
Sun 09:35:58 PM 40.0903 -87.4222 84° East 476 548 35,000  Level Indianapolis Center
Sun 09:36:59 PM 40.1058 -87.2153 84° East 475 547 35,000  Level Indianapolis Center
Sun 09:38:01 PM 40.1172 -87.0422 85° East 475 547 35,000  Level Indianapolis Center
Sun 09:39:02 PM 40.1294 -86.8678 85° East 478 550 35,000  Level Indianapolis Center
Sun 09:39:18 PM 40.1339 -86.8247 82° East 478 550 35,000  Level Chicago Center
Sun 09:40:19 PM 40.1458 -86.6478 85° East 478 550 35,000  Level Chicago Center
Sun 09:41:21 PM 40.1561 -86.4744 86° East 482 555 35,000  Level Chicago Center
Sun 09:42:23 PM 40.1681 -86.3033 85° East 475 547 35,000  Level Chicago Center
Sun 09:43:25 PM 40.1778 -86.1297 86° East 479 551 35,000  Level Chicago Center
Sun 09:44:26 PM 40.1886 -85.9556 85° East 481 554 35,000  Level Chicago Center
Sun 09:45:28 PM 40.1989 -85.7828 85° East 483 556 35,000  Level Chicago Center
Sun 09:46:30 PM 40.2108 -85.5725 86° East 484 557 35,000  Level Chicago Center
Sun 09:47:31 PM 40.2203 -85.4000 86° East 480 552 35,000  Level Chicago Center
Sun 09:48:15 PM 40.2278 -85.2711 86° East 482 555 35,000  Level Indianapolis Center
Sun 09:49:16 PM 40.2372 -85.0953 86° East 483 556 35,000  Level Indianapolis Center
Sun 09:50:17 PM 40.2328 -84.9231 92° East 471 542 35,000  Level Indianapolis Center
Sun 09:51:18 PM 40.2161 -84.7503 97° East 474 545 35,000  Level Indianapolis Center
Sun 09:52:20 PM 40.2014 -84.5789 96° East 472 543 35,000  Level Indianapolis Center
Sun 09:53:21 PM 40.1881 -84.4047 96° East 476 548 35,000  Level Indianapolis Center
Sun 09:54:22 PM 40.1733 -84.2306 96° East 479 551 35,000  Level Indianapolis Center
Sun 09:55:23 PM 40.1622 -84.0533 95° East 483 556 35,000  Level Indianapolis Center
Sun 09:56:24 PM 40.1508 -83.8761 95° East 484 557 35,000  Level Indianapolis Center
Sun 09:57:25 PM 40.1403 -83.6975 94° East 485 558 35,000  Level Indianapolis Center
Sun 09:58:27 PM 40.1444 -83.5178 88° East 487 560 35,000  Level Indianapolis Center
Sun 09:59:28 PM 40.1564 -83.3364 85° East 491 565 35,000  Level Indianapolis Center
Sun 10:00:29 PM 40.1664 -83.1531 86° East 497 572 35,000  Level Indianapolis Center
Sun 10:01:30 PM 40.1744 -82.9703 87° East 498 573 35,000  Level Indianapolis Center
Sun 10:02:31 PM 40.1836 -82.7861 86° East 502 578 35,000  Level Indianapolis Center
Sun 10:03:32 PM 40.1942 -82.6017 86° East 503 579 35,000  Level Indianapolis Center
Sun 10:04:33 PM 40.2033 -82.4167 86° East 505 581 35,000  Level Indianapolis Center
Sun 10:05:34 PM 40.2119 -82.2317 86° East 504 580 35,000  Level Indianapolis Center
Sun 10:06:35 PM 40.2197 -82.0469 87° East 504 580 35,000  Level Indianapolis Center
Sun 10:07:36 PM 40.2278 -81.8633 87° East 502 578 35,000  Level Indianapolis Center
Sun 10:08:37 PM 40.2353 -81.6572 87° East 506 582 35,000  Level Indianapolis Center
Sun 10:09:38 PM 40.2422 -81.4736 87° East 505 581 35,000  Level Indianapolis Center
Sun 10:10:47 PM 40.2528 -81.2550 86° East 498 573 35,000  Level Cleveland Center
Sun 10:11:47 PM 40.2600 -81.0728 87° East 498 573 35,000  Level Cleveland Center
Sun 10:12:47 PM 40.2669 -80.8850 87° East 498 573 35,000  Level Cleveland Center
Sun 10:13:47 PM 40.2733 -80.6975 87° East 503 579 35,000  Level Cleveland Center
Sun 10:14:47 PM 40.2797 -80.5178 87° East 503 579 35,000  Level Cleveland Center
Sun 10:15:47 PM 40.2836 -80.3328 88° East 498 573 35,000  Level Cleveland Center
Sun 10:16:47 PM 40.2853 -80.1639 89° East 498 573 35,000  Level Cleveland Center
Sun 10:17:47 PM 40.2928 -79.9733 87° East 505 581 35,000  Level Cleveland Center
Sun 10:18:47 PM 40.2978 -79.7883 88° East 510 587 35,000  Level Cleveland Center
Sun 10:19:47 PM 40.3028 -79.6003 88° East 515 593 35,000  Level Cleveland Center
Sun 10:20:47 PM 40.3072 -79.4125 88° East 515 593 35,000  Level Cleveland Center
Sun 10:21:47 PM 40.3092 -79.2217 89° East 515 593 35,000  Level Cleveland Center
Sun 10:22:47 PM 40.3131 -79.0367 88° East 515 593 35,000 -100 Level Cleveland Center
Sun 10:23:47 PM 40.3144 -78.8458 89° East 515 593 34,800 -1,350 Descending Cleveland Center
Sun 10:24:47 PM 40.3156 -78.6581 89° East 515 593 32,300 -2,000 Descending Cleveland Center
Sun 10:25:47 PM 40.3144 -78.4756 90° East 509 586 30,800 -1,777 Descending Cleveland Center
Sun 10:27:46 PM 40.3131 -78.1375 90° East 470 541 27,000 -1,900 Descending New York Center
Sun 10:28:47 PM 40.3128 -77.9714 90° East 457 526 25,100 -984 Descending New York Center
Sun 10:29:48 PM 40.3119 -77.8158 90° East 443 510 25,000 -250 Descending New York Center
Sun 10:30:47 PM 40.3083 -77.6250 91° East 455 524 24,600 -706 Descending New York Center
Sun 10:31:47 PM 40.3097 -77.4564 89° East 461 531 23,600 -893 Descending New York Center
Sun 10:32:48 PM 40.3069 -77.3225 92° East 461 531 22,800 -942 Descending New York Center
Sun 10:33:48 PM 40.3011 -77.1233 92° East 461 531 21,700 -1,050 Descending New York Center
Sun 10:34:48 PM 40.2781 -76.9661 101° East 450 518 20,700 -1,000 Descending New York Center
Sun 10:35:48 PM 40.2422 -76.8133 107° East 444 511 19,700 -1,059 Descending New York Center
Sun 10:36:47 PM 40.2061 -76.6633 107° East 439 505 18,600 -958 Descending New York Center
Sun 10:37:47 PM 40.1769 -76.5331 106° East 426 490 17,800 -1,488 Descending New York Center
Sun 10:38:48 PM 40.1442 -76.3919 107° East 414 476 15,600 -2,431 Descending New York Center
Sun 10:39:43 PM 40.1167 -76.2394 103° East 399 459 13,100 -2,480 Descending FAA TRACON SMA TRACON (SMA)
Sun 10:40:03 PM 40.1139 -76.1961 95° East 389 448 12,500 -1,902 Descending FAA TRACON SMA TRACON (SMA)
Sun 10:40:24 PM 40.1111 -76.1528 95° East 388 447 11,800 -2,250 Descending FAA TRACON SMA TRACON (SMA)
Sun 10:40:43 PM 40.1072 -76.0992 95° East 387 445 11,000 -1,846 Descending FAA TRACON SMA TRACON (SMA)
Sun 10:41:03 PM 40.1053 -76.0581 94° East 381 438 10,600 -750 Descending FAA TRACON SMA TRACON (SMA)
Sun 10:41:23 PM 40.1008 -76.0178 98° East 376 433 10,500 -600 Descending FAA TRACON SMA TRACON (SMA)
Sun 10:41:43 PM 40.0975 -75.9697 95° East 346 398 10,200 -600 Descending FAA TRACON SMA TRACON (SMA)
Sun 10:42:03 PM 40.0953 -75.9325 94° East 330 380 10,100 -923 Descending FAA TRACON SMA TRACON (SMA)
Sun 10:42:22 PM 40.0928 -75.8983 95° East 325 374 9,600 -1,650 Descending FAA TRACON SMA TRACON (SMA)
Sun 10:42:43 PM 40.0886 -75.8528 97° East 323 372 9,000 -1,350 Descending FAA TRACON SMA TRACON (SMA)
Sun 10:43:02 PM 40.0867 -75.8167 94° East 321 369 8,700 -1,050 Descending FAA TRACON SMA TRACON (SMA)
Sun 10:43:23 PM 40.0847 -75.7814 94° East 318 366 8,300 -1,050 Descending FAA TRACON SMA TRACON (SMA)
Sun 10:43:42 PM 40.0817 -75.7372 95° East 314 361 8,000 -600 Descending FAA TRACON SMA TRACON (SMA)
Sun 10:44:03 PM 40.0786 -75.7044 97° East 310 357 7,900 -878 Descending FAA TRACON SMA TRACON (SMA)
Sun 10:44:23 PM 40.0719 -75.6717 105° East 315 362 7,400 -1,500 Descending FAA TRACON SMA TRACON (SMA)
Sun 10:44:43 PM 40.0639 -75.6306 104° East 308 354 6,900 -1,350 Descending FAA TRACON SMA TRACON (SMA)
Sun 10:45:03 PM 40.0569 -75.5969 105° East 308 354 6,500 -1,050 Descending FAA TRACON SMA TRACON (SMA)
Sun 10:45:23 PM 40.0506 -75.5656 105° East 302 348 6,200 -1,050 Descending FAA TRACON SMA TRACON (SMA)
Sun 10:45:43 PM 40.0422 -75.5250 105° East 297 342 5,800 -1,050 Descending FAA TRACON SMA TRACON (SMA)
Sun 10:46:03 PM 40.0356 -75.4936 105° East 293 337 5,500 -1,050 Descending FAA TRACON SMA TRACON (SMA)
Sun 10:46:23 PM 40.0294 -75.4631 105° East 287 330 5,100 -1,350 Descending FAA TRACON SMA TRACON (SMA)
Sun 10:46:43 PM 40.0214 -75.4250 105° East 284 327 4,600 -1,050 Descending FAA TRACON SMA TRACON (SMA)
Sun 10:47:03 PM 40.0161 -75.3944 103° East 282 325 4,400 -923 Descending FAA TRACON SMA TRACON (SMA)
Sun 10:47:22 PM 40.0103 -75.3653 105° East 276 318 4,000 -750 Descending FAA TRACON SMA TRACON (SMA)
Sun 10:47:43 PM 40.0039 -75.3286 103° East 269 310 3,900 -750 Descending FAA TRACON SMA TRACON (SMA)
Sun 10:48:02 PM 39.9983 -75.2994 104° East 268 308 3,500 -1,050 Descending FAA TRACON SMA TRACON (SMA)
Sun 10:48:23 PM 39.9931 -75.2717 104° East 266 306 3,200 -1,050 Descending FAA TRACON SMA TRACON (SMA)
Sun 10:48:42 PM 39.9878 -75.2422 103° East 262 302 2,800 -1,050 Descending FAA TRACON SMA TRACON (SMA)
Sun 10:49:03 PM 39.9819 -75.2072 102° East 258 297 2,500 -439 Descending FAA TRACON SMA TRACON (SMA)
Sun 10:49:23 PM 39.9769 -75.1811 104° East 252 290 2,500  Level FAA TRACON SMA TRACON (SMA)
Sun 10:49:43 PM 39.9753 -75.1483 94° East 234 269 2,500  Level FAA TRACON SMA TRACON (SMA)
Sun 10:50:03 PM 39.9764 -75.1228 87° East 227 261 2,500  Level FAA TRACON SMA TRACON (SMA)
Sun 10:50:23 PM 39.9681 -75.1014 117° Southeast 214 246 2,500 -300 Level FAA TRACON SMA TRACON (SMA)
Sun 10:50:43 PM 39.9519 -75.0933 159° South 210 242 2,300 -600 Descending FAA TRACON SMA TRACON (SMA)
Sun 10:51:03 PM 39.9319 -75.0969 188° South 195 224 2,100 -300 Descending FAA TRACON SMA TRACON (SMA)
Sun 10:51:23 PM 39.9178 -75.1044 202° Southwest 181 208 2,100 -450 Level FAA TRACON SMA TRACON (SMA)
Sun 10:51:43 PM 39.9081 -75.1158 222° Southwest 173 199 1,800 -1,050 Descending FAA TRACON SMA TRACON (SMA)
Sun 10:52:03 PM 39.8981 -75.1342 235° Southwest 154 177 1,400 -900 Descending FAA TRACON SMA TRACON (SMA)
Sun 10:52:23 PM 39.8922 -75.1492 243° Southwest 149 171 1,200 -750 Descending FAA TRACON SMA TRACON (SMA)
Sun 10:52:43 PM 39.8886 -75.1633 252° West 147 169 900 -769 Descending FAA TRACON SMA TRACON (SMA)
Sun 10:53:02 PM 39.8831 -75.1844 251° West 150 173 700 -750 Descending FAA TRACON SMA TRACON (SMA)
Sun 10:53:23 PM 39.8797 -75.2006 255° West 154 177 400 -878 Descending FAA TRACON SMA TRACON (SMA)
Sun 10:53:43 PM 39.8764 -75.2167 255° West 150 173 100 -450 Descending FAA TRACON SMA TRACON (SMA)
Sun 10:54:03 PM 39.8764 -75.2167 113° Southeast 150 173 100  Level FAA TRACON SMA TRACON (SMA)
Sun 10:54:23 PM 39.8764 -75.2167 113° Southeast 150 173 100  Level FAA TRACON SMA TRACON (SMA)

Login

Don't have an account? Register now (free) for customized features, flight alerts, and more!